Time;durP1;ratioP1;P1;durP2;ratioP2;P2;SDS_P1;SDS_P2;PMS_P1;PMS_P2;Temp;Humidity;BMP_temperature;BMP_pressure;BME280_temperature;BME280_humidity;BME280_pressure;Samples;Min_cycle;Max_cycle;Signal;HPM_P1;HPM_P2
2023/08/28 00:02:25;;;;;;;;;;;;;;;22.25;54.97;101030.81;5064219;28;20514;-46
2023/08/28 00:04:50;;;;;;;;;;;;;;;22.24;54.74;101021.03;5063618;28;20000;-45
2023/08/28 00:07:16;;;;;;;;;;;;;;;22.24;54.68;101028.31;5064275;28;19995;-44
2023/08/28 00:09:41;;;;;;;;;;;;;;;22.23;54.77;101029.34;5063863;28;19917;-45
2023/08/28 00:12:06;;;;;;;;;;;;;;;22.23;54.89;101023.94;5061255;28;19920;-45
2023/08/28 00:14:32;;;;;;;;;;;;;;;22.22;54.75;101025.81;5063205;28;19924;-46
2023/08/28 00:16:57;;;;;;;;;;;;;;;22.20;54.96;101023.28;5064024;28;19913;-45
2023/08/28 00:19:22;;;;;;;;;;;;;;;22.20;54.62;101030.56;5063428;28;20020;-45
2023/08/28 00:21:47;;;;;;;;;;;;;;;22.18;54.73;101022.63;5064302;28;19956;-44
2023/08/28 00:24:13;;;;;;;;;;;;;;;22.18;55.04;101028.03;5065122;28;20322;-45
2023/08/28 00:26:38;;;;;;;;;;;;;;;22.18;54.64;101036.16;5064039;28;19968;-43
2023/08/28 00:29:03;;;;;;;;;;;;;;;22.16;54.75;101038.22;5063312;28;19913;-44
2023/08/28 00:31:28;;;;;;;;;;;;;;;22.16;54.76;101045.50;5063310;28;19916;-45
2023/08/28 00:33:54;;;;;;;;;;;;;;;22.16;54.78;101050.91;5063869;28;19981;-43
2023/08/28 00:36:19;;;;;;;;;;;;;;;22.15;54.62;101054.66;5065430;28;20435;-44
2023/08/28 00:38:44;;;;;;;;;;;;;;;22.14;54.68;101053.81;5065332;28;19917;-43
2023/08/28 00:41:09;;;;;;;;;;;;;;;22.14;54.89;101052.97;5063525;28;19971;-45
2023/08/28 00:43:35;;;;;;;;;;;;;;;22.13;54.71;101062.13;5063520;28;20019;-45
2023/08/28 00:46:00;;;;;;;;;;;;;;;22.12;54.65;101060.41;5063805;28;19920;-45
2023/08/28 00:48:26;;;;;;;;;;;;;;;22.11;54.53;101067.69;5063846;28;19970;-44
2023/08/28 00:50:52;;;;;;;;;;;;;;;22.11;54.89;101070.41;5063560;28;20435;-48
2023/08/28 00:53:17;;;;;;;;;;;;;;;22.11;54.53;101077.69;5063121;28;19939;-47
2023/08/28 00:55:42;;;;;;;;;;;;;;;22.10;54.48;101067.88;5063639;28;20390;-45
2023/08/28 00:58:07;;;;;;;;;;;;;;;22.09;54.86;101072.47;5063700;28;19919;-48
2023/08/28 01:00:32;;;;;;;;;;;;;;;22.08;54.73;101070.75;5061650;28;19917;-47
2023/08/28 01:02:58;;;;;;;;;;;;;;;22.07;54.47;101085.34;5063892;28;19958;-47
2023/08/28 01:05:25;;;;;;;;;;;;;;;22.07;54.71;101074.50;5094846;28;19913;-48
2023/08/28 01:08:03;;;;;;;;;;;;;;;22.06;54.65;101078.25;5062607;28;19917;-48
2023/08/28 01:10:34;;;;;;;;;;;;;;;22.05;54.69;101082.00;5061968;28;20377;-50
2023/08/28 01:12:59;;;;;;;;;;;;;;;22.04;54.64;101080.28;5063219;28;20276;-49
2023/08/28 01:15:24;;;;;;;;;;;;;;;22.04;54.67;101085.69;5062738;28;19913;-50
2023/08/28 01:17:56;;;;;;;;;;;;;;;22.03;54.68;101097.56;5063592;28;19920;-49
2023/08/28 01:20:21;;;;;;;;;;;;;;;22.03;54.49;101096.72;5064498;28;19992;-47
2023/08/28 01:22:59;;;;;;;;;;;;;;;22.02;54.62;101095.88;5062889;28;19978;-47
2023/08/28 01:25:24;;;;;;;;;;;;;;;22.02;54.59;101095.06;5062650;28;19980;-49
2023/08/28 01:27:50;;;;;;;;;;;;;;;22.01;54.65;101085.25;5063318;28;19913;-50
2023/08/28 01:30:15;;;;;;;;;;;;;;;22.00;54.47;101084.38;5061565;28;19943;-50
2023/08/28 01:32:41;;;;;;;;;;;;;;;21.99;54.70;101080.00;5063729;28;19920;-50
2023/08/28 01:35:14;;;;;;;;;;;;;;;21.99;54.72;101077.28;5066574;28;19919;-49
2023/08/28 01:37:58;;;;;;;;;;;;;;;21.99;54.84;101087.28;5066009;28;20010;-49
2023/08/28 01:40:24;;;;;;;;;;;;;;;;;;5065616;28;20012;-49
2023/08/28 01:42:49;;;;;;;;;;;;;;;21.96;54.66;101089.34;5066471;28;19913;-50
2023/08/28 01:45:14;;;;;;;;;;;;;;;21.95;54.53;101089.53;5098558;28;19913;-48
2023/08/28 01:47:40;;;;;;;;;;;;;;;21.95;54.63;101094.94;5099295;28;19948;-46
2023/08/28 01:50:05;;;;;;;;;;;;;;;21.94;54.73;101088.69;5066729;28;19924;-44
2023/08/28 01:52:30;;;;;;;;;;;;;;;21.93;54.81;101087.00;5067793;28;19947;-45
2023/08/28 01:54:55;;;;;;;;;;;;;;;21.92;54.64;101082.63;5066715;28;19959;-46
2023/08/28 01:57:21;;;;;;;;;;;;;;;21.92;54.46;101085.34;5098844;28;19974;-45
2023/08/28 01:59:46;;;;;;;;;;;;;;;21.92;54.66;101073.66;5066090;28;19917;-45
2023/08/28 02:02:11;;;;;;;;;;;;;;;21.92;54.59;101076.38;5066965;28;19913;-46
2023/08/28 02:04:36;;;;;;;;;;;;;;;21.91;54.62;101075.50;5065789;28;20175;-47
2023/08/28 02:07:01;;;;;;;;;;;;;;;21.90;54.42;101071.13;5066172;28;19917;-47
2023/08/28 02:09:27;;;;;;;;;;;;;;;21.90;54.54;101060.28;5066496;28;19913;-47
2023/08/28 02:11:52;;;;;;;;;;;;;;;21.89;54.73;101055.06;5066785;28;19913;-48
2023/08/28 02:14:17;;;;;;;;;;;;;;;21.88;54.58;101061.53;5065426;28;19917;-46
2023/08/28 02:16:42;;;;;;;;;;;;;;;21.88;54.48;101056.09;5066799;28;19959;-46
2023/08/28 02:19:07;;;;;;;;;;;;;;;21.86;54.65;101056.28;5066547;28;19951;-44
2023/08/28 02:21:34;;;;;;;;;;;;;;;21.87;54.60;101057.13;5066047;28;19921;-45
2023/08/28 02:23:59;;;;;;;;;;;;;;;21.86;54.41;101053.56;5065898;28;19978;-44
2023/08/28 02:26:24;;;;;;;;;;;;;;;21.85;54.48;101048.34;5065983;28;19925;-44
2023/08/28 02:28:49;;;;;;;;;;;;;;;21.84;54.69;101050.22;5065358;28;19913;-45
2023/08/28 02:31:15;;;;;;;;;;;;;;;21.84;54.44;101052.94;5066086;28;19916;-47
2023/08/28 02:33:40;;;;;;;;;;;;;;;21.83;54.56;101050.38;5065597;28;19935;-45
2023/08/28 02:36:05;;;;;;;;;;;;;;;21.83;54.43;101047.69;5065637;28;19921;-44
2023/08/28 02:38:30;;;;;;;;;;;;;;;21.82;54.68;101052.25;5065812;28;19912;-45
2023/08/28 02:41:03;;;;;;;;;;;;;;;21.82;54.51;101051.41;5065610;28;19917;-46
2023/08/28 02:43:28;;;;;;;;;;;;;;;21.81;54.61;101041.63;5098070;28;19913;-47
2023/08/28 02:45:53;;;;;;;;;;;;;;;21.81;54.58;101047.03;5064090;28;19919;-46
2023/08/28 02:48:18;;;;;;;;;;;;;;;21.80;54.47;101045.38;5065362;28;19916;-44
2023/08/28 02:50:47;;;;;;;;;;;;;;;21.80;54.27;101054.31;5065579;28;19980;-44
2023/08/28 02:53:13;;;;;;;;;;;;;;;21.79;54.32;101043.66;5065869;28;19917;-45
2023/08/28 02:55:39;;;;;;;;;;;;;;;21.78;54.41;101042.81;5065746;28;19924;-45
2023/08/28 02:58:04;;;;;;;;;;;;;;;21.77;54.56;101038.44;5064903;28;19916;-45
2023/08/28 03:00:29;;;;;;;;;;;;;;;21.76;54.58;101033.22;5065052;28;19951;-44
2023/08/28 03:02:55;;;;;;;;;;;;;;;21.77;54.50;101034.91;5065526;28;20526;-44
2023/08/28 03:05:20;;;;;;;;;;;;;;;21.76;54.40;101044.03;5064690;28;19916;-45
2023/08/28 03:07:45;;;;;;;;;;;;;;;21.75;54.57;101048.63;5064992;28;19916;-47
2023/08/28 03:10:11;;;;;;;;;;;;;;;21.74;54.52;101043.38;5065264;28;19913;-47
2023/08/28 03:12:36;;;;;;;;;;;;;;;21.74;54.42;101043.38;5065146;28;19913;-44
2023/08/28 03:15:01;;;;;;;;;;;;;;;21.73;54.20;101047.13;5064281;28;19912;-45
2023/08/28 03:17:26;;;;;;;;;;;;;;;21.72;54.39;101046.28;5065478;28;19913;-44
2023/08/28 03:19:52;;;;;;;;;;;;;;;21.71;54.40;101041.91;5065146;28;20298;-44
2023/08/28 03:22:17;;;;;;;;;;;;;;;21.71;54.21;101037.31;5064913;28;20365;-45
2023/08/28 03:24:42;;;;;;;;;;;;;;;21.70;54.42;101048.31;5064277;28;20393;-45
2023/08/28 03:27:07;;;;;;;;;;;;;;;21.69;54.65;101055.59;5064728;28;19917;-44
2023/08/28 03:29:32;;;;;;;;;;;;;;;21.68;54.47;101070.16;5063952;28;19917;-46
2023/08/28 03:31:58;;;;;;;;;;;;;;;21.69;54.34;101071.00;5064582;28;20023;-44
2023/08/28 03:34:23;;;;;;;;;;;;;;;21.67;54.37;101068.47;5062694;28;20267;-45
2023/08/28 03:36:48;;;;;;;;;;;;;;;21.67;54.41;101073.06;5064684;28;19917;-44
2023/08/28 03:39:13;;;;;;;;;;;;;;;21.66;54.53;101074.06;5064631;28;19955;-45
2023/08/28 03:41:38;;;;;;;;;;;;;;;21.64;54.50;101076.94;5064430;28;19964;-45
2023/08/28 03:44:04;;;;;;;;;;;;;;;21.65;54.51;101083.19;5063425;28;19917;-46
2023/08/28 03:46:29;;;;;;;;;;;;;;;21.63;54.07;101088.81;5064586;28;19913;-45
2023/08/28 03:48:54;;;;;;;;;;;;;;;21.63;54.34;101091.50;5064573;28;19913;-46
2023/08/28 03:51:19;;;;;;;;;;;;;;;21.62;54.27;101087.13;5065026;28;19916;-45
2023/08/28 03:53:44;;;;;;;;;;;;;;;21.62;54.33;101087.13;5064142;28;19921;-45
2023/08/28 03:56:10;;;;;;;;;;;;;;;21.60;54.34;101089.16;5064060;28;19966;-44
2023/08/28 03:58:35;;;;;;;;;;;;;;;21.61;54.18;101095.41;5064057;28;20393;-45
2023/08/28 04:01:00;;;;;;;;;;;;;;;21.60;54.34;101093.75;5063928;28;19916;-45
2023/08/28 04:03:25;;;;;;;;;;;;;;;21.59;54.45;101102.88;5064200;28;19916;-44
2023/08/28 04:05:52;;;;;;;;;;;;;;;21.59;54.35;101105.59;5063134;28;19917;-45
2023/08/28 04:08:19;;;;;;;;;;;;;;;21.59;54.36;101111.00;5062500;28;19912;-46
2023/08/28 04:10:44;;;;;;;;;;;;;;;21.57;54.34;101103.03;5063879;28;19916;-45
2023/08/28 04:13:09;;;;;;;;;;;;;;;21.57;54.11;101102.22;5063858;28;20000;-45
2023/08/28 04:15:34;;;;;;;;;;;;;;;21.57;54.28;101102.22;5063128;28;19978;-45
2023/08/28 04:17:59;;;;;;;;;;;;;;;21.55;54.12;101102.41;5063733;28;19984;-44
2023/08/28 04:20:25;;;;;;;;;;;;;;;21.55;54.48;101107.81;5058985;28;19931;-47
2023/08/28 04:22:50;;;;;;;;;;;;;;;21.55;54.26;101112.38;5064643;28;19929;-43
2023/08/28 04:25:15;;;;;;;;;;;;;;;21.55;54.31;101109.69;5063543;28;19932;-44
2023/08/28 04:27:40;;;;;;;;;;;;;;;21.56;54.47;101114.06;5063630;28;19913;-45
2023/08/28 04:30:08;;;;;;;;;;;;;;;21.56;54.45;101119.47;5062795;28;19912;-45
2023/08/28 04:32:33;;;;;;;;;;;;;;;21.54;54.58;101125.06;5063943;28;19917;-47
2023/08/28 04:34:59;;;;;;;;;;;;;;;21.54;54.57;101130.47;5062611;28;19962;-45
2023/08/28 04:37:24;;;;;;;;;;;;;;;21.54;54.29;101141.31;5063611;28;19936;-45
2023/08/28 04:39:49;;;;;;;;;;;;;;;21.53;54.57;101136.91;5063406;28;19952;-45
2023/08/28 04:42:15;;;;;;;;;;;;;;;21.53;54.62;101145.00;5063437;28;20129;-45
2023/08/28 04:44:40;;;;;;;;;;;;;;;21.52;54.27;101139.78;5062960;28;19912;-44
2023/08/28 04:47:05;;;;;;;;;;;;;;;21.52;54.57;101148.75;5063906;28;19916;-46
2023/08/28 04:49:31;;;;;;;;;;;;;;;21.52;54.53;101146.03;5063132;28;19966;-44
2023/08/28 04:51:56;;;;;;;;;;;;;;;21.52;54.91;101148.75;5063916;28;19943;-46
2023/08/28 04:54:21;;;;;;;;;;;;;;;21.52;54.98;101137.94;5063793;28;19927;-45
2023/08/28 04:56:46;;;;;;;;;;;;;;;21.52;54.99;101150.63;5063503;28;20009;-44
2023/08/28 04:59:12;;;;;;;;;;;;;;;21.52;55.08;101148.75;5062394;28;19913;-43
2023/08/28 05:01:37;;;;;;;;;;;;;;;21.52;54.92;101146.03;5070134;28;19956;-44
2023/08/28 05:04:02;;;;;;;;;;;;;;;21.52;54.85;101137.94;5061766;28;19917;-46
2023/08/28 05:06:28;;;;;;;;;;;;;;;21.52;55.09;101140.63;5057716;28;20116;-43
2023/08/28 05:08:53;;;;;;;;;;;;;;;21.51;55.17;101138.97;5064740;28;19963;-45
2023/08/28 05:11:19;;;;;;;;;;;;;;;21.51;54.92;101136.25;5066959;28;19913;-46
2023/08/28 05:13:44;;;;;;;;;;;;;;;21.52;55.13;101143.34;5066860;28;19972;-45
2023/08/28 05:16:09;;;;;;;;;;;;;;;21.51;55.03;101133.53;5066553;28;19917;-47
2023/08/28 05:18:34;;;;;;;;;;;;;;;21.52;55.22;101134.38;5066947;28;19928;-45
2023/08/28 05:20:59;;;;;;;;;;;;;;;21.52;55.37;101131.69;5067122;28;19917;-46
2023/08/28 05:23:25;;;;;;;;;;;;;;;21.52;55.24;101128.97;5067788;28;19971;-44
2023/08/28 05:25:54;;;;;;;;;;;;;;;21.52;55.09;101131.69;5066806;28;19924;-45
2023/08/28 05:28:19;;;;;;;;;;;;;;;21.51;55.12;101130.84;5067038;28;19912;-43
2023/08/28 05:30:44;;;;;;;;;;;;;;;21.52;55.46;101126.25;5066371;28;20012;-44
2023/08/28 05:33:10;;;;;;;;;;;;;;;21.51;55.28;101124.59;5068844;28;19939;-43
2023/08/28 05:35:35;;;;;;;;;;;;;;;21.51;55.15;101116.47;5065865;28;19920;-44
2023/08/28 05:38:00;;;;;;;;;;;;;;;21.51;55.08;101114.59;5066944;28;19913;-44
2023/08/28 05:40:25;;;;;;;;;;;;;;;21.50;55.23;101114.81;5062203;28;19929;-43
2023/08/28 05:42:50;;;;;;;;;;;;;;;21.50;55.19;101122.91;5064463;28;19925;-44
2023/08/28 05:45:16;;;;;;;;;;;;;;;21.50;55.34;101112.09;5065323;28;19940;-45
2023/08/28 05:47:41;;;;;;;;;;;;;;;21.52;55.52;101120.84;5066691;28;19920;-44
2023/08/28 05:50:06;;;;;;;;;;;;;;;21.50;55.29;101121.03;5066284;28;19948;-43
2023/08/28 05:52:32;;;;;;;;;;;;;;;21.51;55.56;101120.00;5066186;28;20003;-45
2023/08/28 05:54:57;;;;;;;;;;;;;;;21.50;55.50;101122.91;5065852;28;19944;-44
2023/08/28 05:57:23;;;;;;;;;;;;;;;21.51;55.44;101122.72;5066582;28;19912;-47
2023/08/28 05:59:49;;;;;;;;;;;;;;;21.51;55.50;101122.72;5065902;28;19913;-44
2023/08/28 06:02:14;;;;;;;;;;;;;;;21.50;55.50;101121.03;5066107;28;19924;-43
2023/08/28 06:04:39;;;;;;;;;;;;;;;21.50;55.47;101126.47;5065030;28;19920;-43
2023/08/28 06:07:05;;;;;;;;;;;;;;;21.50;55.10;101125.63;5066423;28;19912;-44
2023/08/28 06:09:30;;;;;;;;;;;;;;;21.50;55.34;101126.47;5066158;28;19916;-44
2023/08/28 06:11:55;;;;;;;;;;;;;;;21.50;55.35;101117.50;5066245;28;19921;-45
2023/08/28 06:14:20;;;;;;;;;;;;;;;21.49;55.31;101118.50;5065174;28;19917;-43
2023/08/28 06:16:46;;;;;;;;;;;;;;;21.49;55.08;101123.91;5066127;28;20293;-44
2023/08/28 06:19:11;;;;;;;;;;;;;;;21.48;55.20;101116.81;5065809;28;19970;-43
2023/08/28 06:21:36;;;;;;;;;;;;;;;21.46;55.26;101117.84;5065766;28;19927;-43
2023/08/28 06:24:01;;;;;;;;;;;;;;;21.47;55.05;101113.28;5065471;28;19999;-43
2023/08/28 06:26:27;;;;;;;;;;;;;;;21.46;55.20;101123.25;5066116;28;19921;-44
2023/08/28 06:28:52;;;;;;;;;;;;;;;21.47;55.20;101132.22;5064389;28;19920;-43
2023/08/28 06:31:17;;;;;;;;;;;;;;;21.47;55.13;101126.81;5065028;28;19917;-43
2023/08/28 06:33:42;;;;;;;;;;;;;;;21.45;55.12;101128.84;5067836;28;19947;-43
2023/08/28 06:36:08;;;;;;;;;;;;;;;21.46;55.24;101136.78;5065414;28;19916;-46
2023/08/28 06:38:33;;;;;;;;;;;;;;;21.45;55.21;101135.13;5065787;28;19920;-43
2023/08/28 06:41:00;;;;;;;;;;;;;;;21.45;55.19;101139.66;5065669;28;19924;-44
2023/08/28 06:43:26;;;;;;;;;;;;;;;21.45;55.35;101140.53;5065164;28;19925;-45
2023/08/28 06:45:51;;;;;;;;;;;;;;;21.45;55.05;101136.94;5065006;28;20450;-44
2023/08/28 06:48:16;;;;;;;;;;;;;;;21.44;55.26;101132.56;5065622;28;19913;-43
2023/08/28 06:50:41;;;;;;;;;;;;;;;21.44;55.12;101141.53;5065169;28;19913;-44
2023/08/28 06:53:06;;;;;;;;;;;;;;;21.45;55.05;101142.38;5062115;28;19984;-43
2023/08/28 06:55:35;;;;;;;;;;;;;;;21.44;54.93;101149.63;5061158;28;19928;-43
2023/08/28 06:58:00;;;;;;;;;;;;;;;21.32;55.15;101128.59;5052430;28;19916;-44
2023/08/28 07:00:25;;;;;;;;;;;;;;;21.44;55.08;101151.50;5061189;28;19925;-44
2023/08/28 07:02:51;;;;;;;;;;;;;;;21.43;55.01;101161.50;5066185;28;19944;-44
2023/08/28 07:05:16;;;;;;;;;;;;;;;21.43;55.28;101156.06;5063348;28;19946;-44
2023/08/28 07:07:41;;;;;;;;;;;;;;;21.43;54.91;101158.78;5063708;28;19924;-44
2023/08/28 07:10:07;;;;;;;;;;;;;;;21.43;55.01;101155.25;5064006;28;19958;-44
2023/08/28 07:12:33;;;;;;;;;;;;;;;21.44;55.03;101148.81;5062701;28;19940;-44
2023/08/28 07:15:27;;;;;;;;;;;;;;;21.43;55.34;101144.41;5061119;28;20020;-43
2023/08/28 07:17:52;;;;;;;;;;;;;;;21.44;55.07;101148.81;5056536;28;19966;-45
2023/08/28 07:20:17;;;;;;;;;;;;;;;21.43;55.09;101150.66;5064027;28;19921;-45
2023/08/28 07:22:43;;;;;;;;;;;;;;;21.44;55.36;101154.22;5063456;28;19920;-46
2023/08/28 07:25:08;;;;;;;;;;;;;;;21.44;55.11;101159.63;5063032;28;20434;-46
2023/08/28 07:27:33;;;;;;;;;;;;;;;21.45;55.19;101150.47;5063468;28;19970;-44
2023/08/28 07:29:59;;;;;;;;;;;;;;;21.45;55.28;101161.31;5062197;28;19967;-45
2023/08/28 07:32:24;;;;;;;;;;;;;;;21.44;55.26;101155.06;5063942;28;19921;-44
2023/08/28 07:34:49;;;;;;;;;;;;;;;21.44;55.40;101148.81;5057335;28;19939;-48
2023/08/28 07:37:14;;;;;;;;;;;;;;;21.45;55.32;101159.47;5063306;28;19920;-49
2023/08/28 07:39:39;;;;;;;;;;;;;;;21.45;55.19;101148.66;5062350;28;19913;-50
2023/08/28 07:42:05;;;;;;;;;;;;;;;21.45;55.05;101164.00;5063170;28;19921;-49
2023/08/28 07:44:30;;;;;;;;;;;;;;;21.45;55.08;101155.88;5062557;28;19974;-49
2023/08/28 07:46:55;;;;;;;;;;;;;;;21.45;55.32;101154.06;5062017;28;19959;-49
2023/08/28 07:49:20;;;;;;;;;;;;;;;21.46;55.13;101160.31;5063311;28;19920;-46
2023/08/28 07:51:45;;;;;;;;;;;;;;;21.46;55.11;101158.44;5062858;28;19946;-45
2023/08/28 07:54:11;;;;;;;;;;;;;;;21.46;55.24;101157.59;5063300;28;19924;-47
2023/08/28 07:56:36;;;;;;;;;;;;;;;21.47;55.30;101164.69;5061938;28;20027;-46
2023/08/28 07:59:01;;;;;;;;;;;;;;;21.48;55.33;101169.06;5062991;28;19966;-44
2023/08/28 08:01:26;;;;;;;;;;;;;;;21.47;55.23;101167.38;5062595;28;19960;-44
2023/08/28 08:03:51;;;;;;;;;;;;;;;21.48;55.30;101170.94;5060311;28;19964;-44
2023/08/28 08:06:17;;;;;;;;;;;;;;;21.49;55.27;101164.50;5061535;28;19944;-52
2023/08/28 08:08:44;;;;;;;;;;;;;;;21.50;55.37;101163.50;5059188;28;19912;-48
2023/08/28 08:11:09;;;;;;;;;;;;;;;21.50;55.16;101163.50;5060745;28;19921;-45
2023/08/28 08:13:34;;;;;;;;;;;;;;;21.50;55.13;101164.34;5059976;28;20305;-45
2023/08/28 08:15:59;;;;;;;;;;;;;;;21.50;55.26;101168.91;5062123;28;20404;-48
2023/08/28 08:18:25;;;;;;;;;;;;;;;21.52;55.31;101166.84;5063646;28;19916;-48
2023/08/28 08:20:50;;;;;;;;;;;;;;;21.53;55.41;101168.53;5062587;28;19928;-48
2023/08/28 08:23:15;;;;;;;;;;;;;;;21.53;55.50;101165.81;5062761;28;19947;-47
2023/08/28 08:25:40;;;;;;;;;;;;;;;21.53;55.02;101169.38;5096911;28;19980;-45
2023/08/28 08:28:05;;;;;;;;;;;;;;;21.53;55.33;101158.53;5062694;28;19919;-45
2023/08/28 08:30:31;;;;;;;;;;;;;;;21.53;55.30;101169.38;5063606;28;19918;-49
2023/08/28 08:32:56;;;;;;;;;;;;;;;21.53;55.46;101174.78;5062665;28;19924;-46
2023/08/28 08:35:21;;;;;;;;;;;;;;;21.53;55.45;101169.38;5062505;28;19917;-50
2023/08/28 08:37:52;;;;;;;;;;;;;;;21.53;55.52;101166.66;5063117;28;19948;-44
2023/08/28 08:40:17;;;;;;;;;;;;;;;21.53;55.57;101169.38;5058864;28;19932;-48
2023/08/28 08:42:42;;;;;;;;;;;;;;;21.54;55.47;101168.38;5059602;28;19913;-47
2023/08/28 08:45:08;;;;;;;;;;;;;;;21.55;55.73;101171.91;5060321;28;19917;-45
2023/08/28 08:47:33;;;;;;;;;;;;;;;21.55;55.93;101174.63;5092698;28;19916;-46
2023/08/28 08:49:59;;;;;;;;;;;;;;;21.55;55.75;101170.03;5062260;28;19913;-43
2023/08/28 08:52:24;;;;;;;;;;;;;;;21.56;56.03;101173.59;5095099;28;19972;-49
2023/08/28 08:54:51;;;;;;;;;;;;;;;21.57;56.17;101172.56;5094462;28;19935;-46
2023/08/28 08:57:19;;;;;;;;;;;;;;;21.57;56.16;101178.81;5061517;28;19920;-48
2023/08/28 08:59:45;;;;;;;;;;;;;;;21.58;56.28;101176.94;5061928;28;19916;-48
2023/08/28 09:02:10;;;;;;;;;;;;;;;21.59;56.25;101176.78;5062586;28;19928;-47
2023/08/28 09:04:35;;;;;;;;;;;;;;;21.61;56.24;101176.59;5094753;28;19913;-48
2023/08/28 09:07:02;;;;;;;;;;;;;;;21.61;56.14;101173.88;5063731;28;19913;-47
2023/08/28 09:09:27;;;;;;;;;;;;;;;21.61;56.23;101172.00;5062695;28;19996;-47
2023/08/28 09:11:53;;;;;;;;;;;;;;;21.63;55.96;101172.69;5078099;28;19924;-47
2023/08/28 09:14:18;;;;;;;;;;;;;;;21.64;55.95;101176.22;5060917;28;20000;-44
2023/08/28 09:16:43;;;;;;;;;;;;;;;21.63;55.87;101163.72;5063231;28;19920;-49
2023/08/28 09:19:09;;;;;;;;;;;;;;;21.64;55.73;101176.22;5061284;28;19916;-50
2023/08/28 09:21:35;;;;;;;;;;;;;;;21.63;55.71;101169.97;5062817;28;19960;-48
2023/08/28 09:24:00;;;;;;;;;;;;;;;21.63;55.75;101167.28;5062837;28;19913;-46
2023/08/28 09:26:25;;;;;;;;;;;;;;;21.64;55.62;101174.38;5063275;28;19938;-47
2023/08/28 09:29:02;;;;;;;;;;;;;;;21.64;55.58;101170.81;5062560;28;19926;-48
2023/08/28 09:31:28;;;;;;;;;;;;;;;21.64;55.79;101170.81;5062630;28;20357;-47
2023/08/28 09:33:53;;;;;;;;;;;;;;;21.64;55.74;101165.41;5062481;28;19913;-49
2023/08/28 09:36:19;;;;;;;;;;;;;;;21.63;55.53;101166.44;5060988;28;19962;-49
2023/08/28 09:38:44;;;;;;;;;;;;;;;21.63;55.36;101164.56;5064569;28;19925;-45
2023/08/28 09:41:09;;;;;;;;;;;;;;;21.64;55.17;101160.00;5061085;28;19986;-52
2023/08/28 09:43:35;;;;;;;;;;;;;;;21.64;55.53;101168.94;5095146;28;20267;-48
2023/08/28 09:46:01;;;;;;;;;;;;;;;21.64;55.77;101166.25;5060932;28;20384;-48
2023/08/28 09:48:28;;;;;;;;;;;;;;;21.67;55.17;101171.31;5063182;28;19956;-48
2023/08/28 09:50:53;;;;;;;;;;;;;;;21.67;54.34;101171.31;5093156;28;19940;-49
2023/08/28 09:53:18;;;;;;;;;;;;;;;21.67;53.98;101160.47;5062519;28;19913;-47
2023/08/28 09:55:50;;;;;;;;;;;;;;;21.67;53.35;101165.06;5065908;28;19923;-48
2023/08/28 09:58:15;;;;;;;;;;;;;;;21.67;53.63;101176.72;5065150;28;19920;-49
2023/08/28 10:00:41;;;;;;;;;;;;;;;21.68;53.14;101169.44;5065408;28;19921;-46
2023/08/28 10:03:10;;;;;;;;;;;;;;;21.68;52.30;101161.31;5066116;28;19916;-46
2023/08/28 10:05:40;;;;;;;;;;;;;;;21.67;51.89;101163.19;5063372;28;19913;-47
2023/08/28 10:08:05;;;;;;;;;;;;;;;21.67;51.85;101163.19;5066207;28;19975;-46
2023/08/28 10:10:31;;;;;;;;;;;;;;;21.66;51.88;101163.34;5066579;28;19916;-49
2023/08/28 10:12:56;;;;;;;;;;;;;;;21.65;51.69;101158.97;5064672;28;19948;-45
2023/08/28 10:15:21;;;;;;;;;;;;;;;21.65;51.70;101169.78;5064251;28;19924;-48
2023/08/28 10:17:46;;;;;;;;;;;;;;;21.65;51.64;101167.09;5098698;28;19920;-48
2023/08/28 10:20:12;;;;;;;;;;;;;;;21.67;51.61;101167.75;5097765;28;19928;-49
2023/08/28 10:22:37;;;;;;;;;;;;;;;21.67;51.67;101165.91;5064741;28;19919;-50
2023/08/28 10:25:02;;;;;;;;;;;;;;;21.67;51.66;101165.06;5097540;28;19920;-44
2023/08/28 10:27:28;;;;;;;;;;;;;;;21.70;51.71;101170.09;5098103;28;19990;-46
2023/08/28 10:29:53;;;;;;;;;;;;;;;21.70;51.81;101162.81;5065455;28;19924;-49
2023/08/28 10:32:18;;;;;;;;;;;;;;;21.71;52.07;101169.09;5065581;28;19919;-49
2023/08/28 10:34:43;;;;;;;;;;;;;;;21.73;52.33;101168.91;5097173;28;19917;-46
2023/08/28 10:37:09;;;;;;;;;;;;;;;21.74;51.62;101171.41;5066938;28;19917;-47
2023/08/28 10:39:38;;;;;;;;;;;;;;;21.73;51.73;101169.72;5065531;28;19920;-48
2023/08/28 10:42:04;;;;;;;;;;;;;;;21.73;51.98;101171.59;5065601;28;19917;-45
2023/08/28 10:44:29;;;;;;;;;;;;;;;21.73;52.37;101177.00;5065067;28;19912;-48
2023/08/28 10:46:54;;;;;;;;;;;;;;;21.73;52.61;101172.44;5064849;28;19944;-44
2023/08/28 10:49:20;;;;;;;;;;;;;;;21.74;52.57;101166.00;5065695;28;19940;-46
2023/08/28 10:51:46;;;;;;;;;;;;;;;21.73;52.94;101169.72;5065447;28;19913;-50
2023/08/28 10:54:11;;;;;;;;;;;;;;;21.74;53.10;101171.41;5064666;28;19917;-47
2023/08/28 10:56:37;;;;;;;;;;;;;;;21.74;53.44;101165.16;5065625;28;19927;-44
2023/08/28 10:59:22;;;;;;;;;;;;;;;21.73;53.51;101168.91;5064274;28;20016;-48
2023/08/28 11:01:51;;;;;;;;;;;;;;;21.75;53.54;101178.53;5064647;28;19928;-46
2023/08/28 11:04:16;;;;;;;;;;;;;;;21.74;53.78;101173.28;5064620;28;19943;-44
2023/08/28 11:06:43;;;;;;;;;;;;;;;21.74;53.81;101171.41;5064488;28;19917;-49
2023/08/28 11:09:30;;;;;;;;;;;;;;;21.75;53.92;101173.13;5064745;28;19917;-46
2023/08/28 11:12:01;;;;;;;;;;;;;;;21.75;54.21;101174.94;5063748;28;19979;-45
2023/08/28 11:14:30;;;;;;;;;;;;;;;21.76;54.12;101177.50;5063350;28;19927;-47
2023/08/28 11:17:16;;;;;;;;;;;;;;;21.76;54.46;101184.78;5095575;28;20304;-49
2023/08/28 11:19:53;;;;;;;;;;;;;;;21.76;54.51;101184.78;5063426;28;19963;-50
2023/08/28 11:22:28;;;;;;;;;;;;;;;21.77;54.70;101183.75;5064051;28;19956;-48
2023/08/28 11:24:54;;;;;;;;;;;;;;;21.77;54.68;101181.88;5064332;28;19921;-45
2023/08/28 11:27:34;;;;;;;;;;;;;;;21.77;54.80;101181.88;5065065;28;19958;-47
2023/08/28 11:30:04;;;;;;;;;;;;;;;21.78;54.74;101171.91;5063838;28;19917;-48
2023/08/28 11:32:30;;;;;;;;;;;;;;;21.79;54.86;101177.16;5064532;28;19920;-49
2023/08/28 11:34:57;;;;;;;;;;;;;;;21.78;54.67;101167.31;5079296;28;19913;-46
2023/08/28 11:37:29;;;;;;;;;;;;;;;21.82;54.45;101165.09;5064909;28;19939;-46
2023/08/28 11:39:54;;;;;;;;;;;;;;;21.80;54.41;101162.59;5061473;28;19921;-46
2023/08/28 11:42:19;;;;;;;;;;;;;;;21.82;54.34;101173.22;5062491;28;19924;-47
2023/08/28 11:44:45;;;;;;;;;;;;;;;21.85;54.33;101159.31;5063544;28;19916;-48
2023/08/28 11:47:10;;;;;;;;;;;;;;;21.88;54.49;101156.28;5064487;28;20647;-50
2023/08/28 11:49:36;;;;;;;;;;;;;;;21.89;54.53;101150.66;5065384;28;19917;-48
2023/08/28 11:52:02;;;;;;;;;;;;;;;21.92;54.37;101146.75;5064673;28;19919;-46
2023/08/28 11:54:28;;;;;;;;;;;;;;;21.93;54.39;101149.28;5063177;28;19917;-47
2023/08/28 11:56:58;;;;;;;;;;;;;;;21.95;54.62;101144.50;5064245;28;19998;-45
2023/08/28 11:59:23;;;;;;;;;;;;;;;21.98;54.45;101146.00;5060730;28;19980;-46
2023/08/28 12:01:48;;;;;;;;;;;;;;;22.00;54.12;101149.38;5090739;28;19971;-47
2023/08/28 12:04:14;;;;;;;;;;;;;;;22.01;53.16;101145.66;5062751;28;19912;-48
2023/08/28 12:06:39;;;;;;;;;;;;;;;22.01;52.30;101148.38;5056498;28;19920;-46
2023/08/28 12:09:04;;;;;;;;;;;;;;;21.71;52.02;101106.84;5061393;28;19913;-44
2023/08/28 12:11:30;;;;;;;;;;;;;;;22.02;52.15;101157.31;5062634;28;19913;-46
2023/08/28 12:13:55;;;;;;;;;;;;;;;22.04;52.42;101144.44;5096179;28;19966;-48
2023/08/28 12:16:23;;;;;;;;;;;;;;;22.06;52.43;101145.94;5063172;28;20296;-48
2023/08/28 12:18:49;;;;;;;;;;;;;;;22.07;52.04;101139.50;5062199;28;19917;-46
2023/08/28 12:21:15;;;;;;;;;;;;;;;22.08;52.53;101145.75;5096218;28;20323;-46
2023/08/28 12:23:47;;;;;;;;;;;;;;;22.10;52.87;101149.13;5063617;28;19917;-46
2023/08/28 12:26:12;;;;;;;;;;;;;;;22.09;53.11;101152.84;5061930;28;19924;-46
2023/08/28 12:28:37;;;;;;;;;;;;;;;22.10;53.46;101154.53;5062942;28;20405;-47
2023/08/28 12:31:02;;;;;;;;;;;;;;;22.09;53.81;101163.66;5095253;28;19976;-49
2023/08/28 12:33:28;;;;;;;;;;;;;;;22.08;53.88;101165.53;5063696;28;19917;-48